createdAt,value
2019-06-20T00:00:54.292Z,3.40
2019-06-20T00:01:54.257Z,3.30
2019-06-20T00:02:54.233Z,3.30
2019-06-20T00:03:54.208Z,3.40
2019-06-20T00:04:54.201Z,3.50
2019-06-20T00:05:54.179Z,3.80
2019-06-20T00:06:54.231Z,3.40
2019-06-20T00:07:54.169Z,3.30
2019-06-20T00:08:54.150Z,3.80
2019-06-20T00:09:54.148Z,3.50
2019-06-20T00:10:54.139Z,3.30
2019-06-20T00:11:54.119Z,3.30
2019-06-20T00:13:00.465Z,3.50
2019-06-20T00:13:55.103Z,3.60
2019-06-20T00:14:54.092Z,3.70
2019-06-20T00:15:54.083Z,3.00
2019-06-20T00:16:54.069Z,3.40
2019-06-20T00:17:54.055Z,3.40
2019-06-20T00:18:54.078Z,3.40
2019-06-20T00:19:54.045Z,3.60
2019-06-20T00:20:54.047Z,3.50
2019-06-20T00:21:54.018Z,3.60
2019-06-20T00:22:54.057Z,3.20
2019-06-20T00:23:53.997Z,3.40
2019-06-20T00:24:54.017Z,3.30
2019-06-20T00:25:53.969Z,3.50
2019-06-20T00:26:53.958Z,3.50
2019-06-20T00:27:53.948Z,3.40
2019-06-20T00:28:53.937Z,3.60
2019-06-20T00:29:53.938Z,3.60
2019-06-20T00:30:53.948Z,3.50
2019-06-20T00:31:53.928Z,3.10
2019-06-20T00:32:53.895Z,3.20
2019-06-20T00:33:53.905Z,3.40
2019-06-20T00:34:53.865Z,3.60
2019-06-20T00:35:53.866Z,3.60
2019-06-20T00:36:53.905Z,3.80
2019-06-20T00:37:53.837Z,3.50
2019-06-20T00:38:53.826Z,3.50
2019-06-20T00:39:53.814Z,3.40
2019-06-20T00:40:53.823Z,3.30
2019-06-20T00:41:53.834Z,3.40
2019-06-20T00:42:53.816Z,3.60
2019-06-20T00:43:53.766Z,3.50
2019-06-20T00:44:53.776Z,3.80
2019-06-20T00:45:53.754Z,3.60
2019-06-20T00:46:53.739Z,3.80
2019-06-20T00:47:53.861Z,3.50
2019-06-20T00:48:53.751Z,3.50
2019-06-20T00:49:53.747Z,3.70
2019-06-20T00:50:53.684Z,3.60
2019-06-20T00:51:53.687Z,3.70
2019-06-20T00:52:53.711Z,3.70
2019-06-20T00:53:53.653Z,3.80
2019-06-20T00:54:53.645Z,3.40
2019-06-20T00:55:53.633Z,3.60
2019-06-20T00:56:53.652Z,3.50
2019-06-20T00:57:53.617Z,3.60
2019-06-20T00:58:53.644Z,3.80
2019-06-20T00:59:53.592Z,3.50
2019-06-20T01:00:53.622Z,4.00
2019-06-20T01:01:53.572Z,3.50
2019-06-20T01:02:53.592Z,3.70
2019-06-20T01:03:53.562Z,3.30
2019-06-20T01:04:53.570Z,3.40
2019-06-20T01:05:53.523Z,3.50
2019-06-20T01:06:53.510Z,3.40
2019-06-20T01:07:53.553Z,3.80
2019-06-20T01:08:53.509Z,3.50
2019-06-20T01:09:53.483Z,3.60
2019-06-20T01:10:53.470Z,3.70
2019-06-20T01:11:53.462Z,3.80
2019-06-20T01:12:53.451Z,4.10
2019-06-20T01:13:53.469Z,4.10
2019-06-20T01:14:53.573Z,3.70
2019-06-20T01:15:53.423Z,3.80
2019-06-20T01:16:53.418Z,3.90
2019-06-20T01:17:53.431Z,3.90
2019-06-20T01:18:53.576Z,3.50
2019-06-20T01:19:53.400Z,3.90
2019-06-20T01:20:53.362Z,3.60
2019-06-20T01:21:53.350Z,3.60
2019-06-20T01:22:53.391Z,3.70
2019-06-20T01:23:53.367Z,3.80
2019-06-20T01:24:53.311Z,3.60
2019-06-20T01:25:53.408Z,3.70
2019-06-20T01:26:53.297Z,3.50
2019-06-20T01:27:53.279Z,3.50
2019-06-20T01:28:53.299Z,3.40
2019-06-20T01:29:53.314Z,3.70
2019-06-20T01:30:53.241Z,3.80
2019-06-20T01:31:53.267Z,3.50
2019-06-20T01:32:53.228Z,3.60
2019-06-20T01:33:53.210Z,3.40
2019-06-20T01:34:53.209Z,3.20
2019-06-20T01:35:53.227Z,3.80
2019-06-20T01:36:53.187Z,3.60
2019-06-20T01:37:53.178Z,3.90
2019-06-20T01:38:53.170Z,3.50
2019-06-20T01:39:53.158Z,3.30
2019-06-20T01:40:53.183Z,3.80
2019-06-20T01:41:53.134Z,3.70
2019-06-20T01:42:53.150Z,3.50
2019-06-20T01:43:53.108Z,3.60
2019-06-20T01:44:53.088Z,3.40
2019-06-20T01:45:53.085Z,3.60
2019-06-20T01:46:53.069Z,3.40
2019-06-20T01:47:53.063Z,3.40
2019-06-20T01:48:53.085Z,3.80
2019-06-20T01:49:53.078Z,3.60
2019-06-20T01:50:53.091Z,3.60
2019-06-20T01:51:53.023Z,3.70
2019-06-20T01:52:53.007Z,3.60
2019-06-20T01:53:53.084Z,3.80
2019-06-20T01:54:52.983Z,3.50
2019-06-20T01:55:53.014Z,3.50
2019-06-20T01:56:52.963Z,3.60
2019-06-20T01:57:52.978Z,3.40
2019-06-20T01:58:52.937Z,3.40
2019-06-20T01:59:52.925Z,3.60
2019-06-20T02:00:52.914Z,3.10
2019-06-20T02:01:52.944Z,3.40
2019-06-20T02:02:52.899Z,3.30
2019-06-20T02:03:53.025Z,3.30
2019-06-20T02:04:52.871Z,3.80
2019-06-20T02:05:52.863Z,3.40
2019-06-20T02:06:52.865Z,3.50
2019-06-20T02:07:52.873Z,3.40
2019-06-20T02:08:52.863Z,3.40
2019-06-20T02:09:52.894Z,3.40
2019-06-20T02:10:52.812Z,3.50
2019-06-20T02:11:52.793Z,3.40
2019-06-20T02:12:52.808Z,3.40
2019-06-20T02:14:06.485Z,3.40
2019-06-20T02:14:53.794Z,3.40
2019-06-20T02:15:52.749Z,3.30
2019-06-20T02:16:52.742Z,3.50
2019-06-20T02:17:52.735Z,3.50
2019-06-20T02:18:52.722Z,3.30
2019-06-20T02:19:52.728Z,3.50
2019-06-20T02:20:52.732Z,3.50
2019-06-20T02:21:52.684Z,3.30
2019-06-20T02:22:52.670Z,3.30
2019-06-20T02:23:52.662Z,3.50
2019-06-20T02:24:52.660Z,3.70
2019-06-20T02:25:52.646Z,3.70
2019-06-20T02:26:52.671Z,3.40
2019-06-20T02:27:52.626Z,3.50
2019-06-20T02:28:52.608Z,3.40
2019-06-20T02:29:52.590Z,3.30
2019-06-20T02:30:52.579Z,3.30
2019-06-20T02:31:52.715Z,3.40
2019-06-20T02:32:52.594Z,3.60
2019-06-20T02:33:52.553Z,3.50
2019-06-20T02:34:52.572Z,3.60
2019-06-20T02:35:52.538Z,3.50
2019-06-20T02:36:52.559Z,3.40
2019-06-20T02:37:52.519Z,3.50
2019-06-20T02:38:52.506Z,3.70
2019-06-20T02:39:52.487Z,3.70
2019-06-20T02:40:52.469Z,3.70
2019-06-20T02:41:52.470Z,3.90
2019-06-20T02:42:52.489Z,3.60
2019-06-20T02:43:52.438Z,3.60
2019-06-20T02:44:52.459Z,3.60
2019-06-20T02:45:52.419Z,3.70
2019-06-20T02:46:52.411Z,3.90
2019-06-20T02:47:52.397Z,3.90
2019-06-20T02:48:52.388Z,3.80
2019-06-20T02:49:52.406Z,3.80
2019-06-20T02:50:52.367Z,3.70
2019-06-20T02:51:52.358Z,3.70
2019-06-20T02:52:52.351Z,3.80
2019-06-20T02:53:52.366Z,3.50
2019-06-20T02:54:52.357Z,3.50
2019-06-20T02:55:52.323Z,3.70
2019-06-20T02:56:52.297Z,3.50
2019-06-20T02:57:52.296Z,3.30
2019-06-20T02:58:52.276Z,3.70
2019-06-20T02:59:52.295Z,3.80
2019-06-20T03:00:52.287Z,3.60
2019-06-20T03:01:52.246Z,3.90
2019-06-20T03:02:52.295Z,3.70
2019-06-20T03:03:52.224Z,3.20
2019-06-20T03:04:52.272Z,3.60
2019-06-20T03:05:52.197Z,3.60
2019-06-20T03:06:52.193Z,3.20
2019-06-20T03:07:52.174Z,3.80
2019-06-20T03:08:52.167Z,3.60
2019-06-20T03:09:52.160Z,3.00
2019-06-20T03:10:52.199Z,3.60
2019-06-20T03:11:52.205Z,3.40
2019-06-20T03:12:52.136Z,3.50
2019-06-20T03:13:52.111Z,3.80
2019-06-20T03:14:52.118Z,3.70
2019-06-20T03:15:52.091Z,3.30
2019-06-20T03:16:52.112Z,3.70
2019-06-20T03:17:52.063Z,3.60
2019-06-20T03:18:52.063Z,3.40
2019-06-20T03:19:52.083Z,3.70
2019-06-20T03:20:52.039Z,3.50
2019-06-20T03:21:52.083Z,3.80
2019-06-20T03:22:52.010Z,3.20
2019-06-20T03:23:52.043Z,3.40
2019-06-20T03:24:52.006Z,3.40
2019-06-20T03:25:52.029Z,3.50
2019-06-20T03:26:51.962Z,3.80
2019-06-20T03:27:52.050Z,3.60
2019-06-20T03:28:51.941Z,3.60
2019-06-20T03:29:51.932Z,3.70
2019-06-20T03:30:52.045Z,3.90
2019-06-20T03:31:51.963Z,3.60
2019-06-20T03:32:51.941Z,3.50
2019-06-20T03:33:51.893Z,3.50
2019-06-20T03:34:51.881Z,3.70
2019-06-20T03:35:51.861Z,3.70
2019-06-20T03:36:51.859Z,3.90
2019-06-20T03:37:51.891Z,3.40
2019-06-20T03:38:51.829Z,4.00
2019-06-20T03:39:51.823Z,3.60
2019-06-20T03:40:51.850Z,3.70
2019-06-20T03:41:51.800Z,3.80
2019-06-20T03:42:51.786Z,4.00
2019-06-20T03:43:51.780Z,3.90
2019-06-20T03:45:01.718Z,3.60
2019-06-20T03:45:52.802Z,3.90
2019-06-20T03:46:51.746Z,3.50
2019-06-20T03:47:51.738Z,3.80
2019-06-20T03:48:51.725Z,3.60
2019-06-20T03:49:51.711Z,4.10
2019-06-20T03:50:51.697Z,3.70
2019-06-20T03:51:51.858Z,4.00
2019-06-20T03:52:51.678Z,3.90
2019-06-20T03:53:51.667Z,3.70
2019-06-20T03:54:51.659Z,3.70
2019-06-20T03:55:51.658Z,4.00
2019-06-20T03:56:51.678Z,3.70
2019-06-20T03:57:51.619Z,3.50
2019-06-20T03:58:51.704Z,3.80
2019-06-20T03:59:51.597Z,3.60
2019-06-20T04:00:51.586Z,4.00
2019-06-20T04:01:51.689Z,3.80
2019-06-20T04:02:51.593Z,3.80
2019-06-20T04:03:51.556Z,3.90
2019-06-20T04:04:51.576Z,4.10
2019-06-20T04:05:51.535Z,3.70
2019-06-20T04:06:51.530Z,3.80
2019-06-20T04:07:51.526Z,4.00
2019-06-20T04:08:51.522Z,3.90
2019-06-20T04:09:51.498Z,4.00
2019-06-20T04:10:51.555Z,4.00
2019-06-20T04:11:51.465Z,4.20
2019-06-20T04:12:51.453Z,4.10
2019-06-20T04:13:51.444Z,4.30
2019-06-20T04:14:51.434Z,4.00
2019-06-20T04:15:51.421Z,3.90
2019-06-20T04:16:51.445Z,4.10
2019-06-20T04:17:51.394Z,4.20
2019-06-20T04:18:51.387Z,4.00
2019-06-20T04:19:51.374Z,4.00
2019-06-20T04:20:51.411Z,3.80
2019-06-20T04:21:51.366Z,4.10
2019-06-20T04:22:51.360Z,4.00
2019-06-20T04:23:51.334Z,3.80
2019-06-20T04:24:51.332Z,3.70
2019-06-20T04:25:51.313Z,4.10
2019-06-20T04:26:51.344Z,4.00
2019-06-20T04:27:51.319Z,3.90
2019-06-20T04:28:51.279Z,4.20
2019-06-20T04:29:51.273Z,4.10
2019-06-20T04:30:51.271Z,4.20
2019-06-20T04:31:51.300Z,3.90
2019-06-20T04:32:51.242Z,3.90
2019-06-20T04:33:51.225Z,3.70
2019-06-20T04:34:51.221Z,4.30
2019-06-20T04:35:51.201Z,4.20
2019-06-20T04:36:51.189Z,4.30
2019-06-20T04:37:51.220Z,4.00
2019-06-20T04:38:51.207Z,4.20
2019-06-20T04:39:51.174Z,3.90
2019-06-20T04:40:51.190Z,4.20
2019-06-20T04:41:51.142Z,4.30
2019-06-20T04:42:51.121Z,3.90
2019-06-20T04:43:51.110Z,4.30
2019-06-20T04:44:51.100Z,3.90
2019-06-20T04:45:51.141Z,4.00
2019-06-20T04:46:51.099Z,4.10
2019-06-20T04:47:51.068Z,4.10
2019-06-20T04:48:51.120Z,3.90
2019-06-20T04:49:51.041Z,4.40
2019-06-20T04:50:51.089Z,4.30
2019-06-20T04:51:51.031Z,4.40
2019-06-20T04:52:51.123Z,4.10
2019-06-20T04:53:50.999Z,4.20
2019-06-20T04:54:50.989Z,4.10
2019-06-20T04:55:50.991Z,4.10
2019-06-20T04:56:51.000Z,4.10
2019-06-20T04:57:50.959Z,4.20
2019-06-20T04:58:50.961Z,4.30
2019-06-20T04:59:50.937Z,4.20
2019-06-20T05:00:50.972Z,4.20
2019-06-20T05:01:50.921Z,4.40
2019-06-20T05:02:50.909Z,4.30
2019-06-20T05:03:50.912Z,3.90
2019-06-20T05:04:50.878Z,4.00
2019-06-20T05:05:50.877Z,4.20
2019-06-20T05:06:50.898Z,3.90
2019-06-20T05:07:50.873Z,4.00
2019-06-20T05:08:50.845Z,3.90
2019-06-20T05:09:50.826Z,4.10
2019-06-20T05:10:50.858Z,3.90
2019-06-20T05:11:50.806Z,4.10
2019-06-20T05:12:50.826Z,3.80
2019-06-20T05:13:50.789Z,3.70
2019-06-20T05:14:51.556Z,3.90
2019-06-20T05:15:52.987Z,4.10
2019-06-20T05:16:50.775Z,3.70
2019-06-20T05:17:50.779Z,3.90
2019-06-20T05:18:50.790Z,4.10
2019-06-20T05:19:50.721Z,4.00
2019-06-20T05:20:50.876Z,3.80
2019-06-20T05:21:50.696Z,4.00
2019-06-20T05:22:50.683Z,3.70
2019-06-20T05:23:50.707Z,3.90
2019-06-20T05:24:50.715Z,3.90
2019-06-20T05:25:50.815Z,4.00
2019-06-20T05:26:50.645Z,4.10
2019-06-20T05:27:50.644Z,4.10
2019-06-20T05:28:50.622Z,4.00
2019-06-20T05:29:50.604Z,4.20
2019-06-20T05:30:50.643Z,3.80
2019-06-20T05:31:50.584Z,4.10
2019-06-20T05:32:50.595Z,4.10
2019-06-20T05:33:50.567Z,3.90
2019-06-20T05:34:50.571Z,3.80
2019-06-20T05:35:50.603Z,3.80
2019-06-20T05:36:50.534Z,3.90
2019-06-20T05:37:50.526Z,3.70
2019-06-20T05:38:50.513Z,4.00
2019-06-20T05:39:50.519Z,3.90
2019-06-20T05:40:50.483Z,3.70
2019-06-20T05:41:50.515Z,4.10
2019-06-20T05:42:50.543Z,4.10
2019-06-20T05:43:50.457Z,4.10
2019-06-20T05:44:50.443Z,3.80
2019-06-20T05:45:50.473Z,4.20
2019-06-20T05:46:50.424Z,3.90
2019-06-20T05:47:50.410Z,3.80
2019-06-20T05:48:50.458Z,4.00
2019-06-20T05:49:50.424Z,4.00
2019-06-20T05:50:50.373Z,3.90
2019-06-20T05:51:50.367Z,4.20
2019-06-20T05:52:50.350Z,4.10
2019-06-20T05:53:50.353Z,4.10
2019-06-20T05:54:50.392Z,3.70
2019-06-20T05:55:50.476Z,4.00
2019-06-20T05:56:50.310Z,3.90
2019-06-20T05:57:50.351Z,3.70
2019-06-20T05:58:50.624Z,3.90
2019-06-20T05:59:50.285Z,4.00
2019-06-20T06:00:50.262Z,3.80
2019-06-20T06:01:50.258Z,3.90
2019-06-20T06:02:50.480Z,3.80
2019-06-20T06:03:51.259Z,3.80
2019-06-20T06:04:50.221Z,4.00
2019-06-20T06:05:50.212Z,3.70
2019-06-20T06:06:50.190Z,4.10
2019-06-20T06:07:50.187Z,4.00
2019-06-20T06:08:50.186Z,3.90
2019-06-20T06:09:50.221Z,3.70
2019-06-20T06:10:50.202Z,3.80
2019-06-20T06:11:50.152Z,4.00
2019-06-20T06:12:50.129Z,3.70
2019-06-20T06:13:50.237Z,4.00
2019-06-20T06:14:50.099Z,3.90
2019-06-20T06:15:50.637Z,3.90
2019-06-20T06:16:50.220Z,4.10
2019-06-20T06:17:50.077Z,3.90
2019-06-20T06:18:50.067Z,4.00
2019-06-20T06:19:50.111Z,4.50
2019-06-20T06:20:50.096Z,4.30
2019-06-20T06:21:50.064Z,4.50
2019-06-20T06:22:50.057Z,4.50
2019-06-20T06:23:50.008Z,4.90
2019-06-20T06:24:49.999Z,4.50
2019-06-20T06:25:49.987Z,4.10
2019-06-20T06:26:50.007Z,4.40
2019-06-20T06:27:49.982Z,4.60
2019-06-20T06:28:49.949Z,4.30
2019-06-20T06:29:49.941Z,4.40
2019-06-20T06:30:49.937Z,4.40
2019-06-20T06:31:49.956Z,4.50
2019-06-20T06:32:49.908Z,4.50
2019-06-20T06:33:49.895Z,4.30
2019-06-20T06:34:49.887Z,4.70
2019-06-20T06:35:49.874Z,4.30
2019-06-20T06:36:49.948Z,4.30
2019-06-20T06:37:49.857Z,4.40
2019-06-20T06:38:49.842Z,4.60
2019-06-20T06:39:49.841Z,4.70
2019-06-20T06:40:49.816Z,5.40
2019-06-20T06:41:49.953Z,5.20
2019-06-20T06:42:49.865Z,5.20
2019-06-20T06:43:49.821Z,4.70
2019-06-20T06:44:49.954Z,5.00
2019-06-20T06:45:49.767Z,4.50
2019-06-20T06:46:54.387Z,4.60
2019-06-20T06:47:50.782Z,4.40
2019-06-20T06:48:49.735Z,4.40
2019-06-20T06:49:49.747Z,4.80
2019-06-20T06:50:49.801Z,4.30
2019-06-20T06:51:49.717Z,4.50
2019-06-20T06:52:49.733Z,4.40
2019-06-20T06:53:49.692Z,4.60
2019-06-20T06:54:49.665Z,4.50
2019-06-20T06:55:49.648Z,4.40
2019-06-20T06:56:49.652Z,4.40
2019-06-20T06:57:49.634Z,4.20
2019-06-20T06:58:49.664Z,4.20
2019-06-20T06:59:49.632Z,4.20
2019-06-20T07:00:49.593Z,4.30
2019-06-20T07:01:49.584Z,4.30
2019-06-20T07:02:49.583Z,4.50
2019-06-20T07:03:49.562Z,4.20
2019-06-20T07:04:49.656Z,4.50
2019-06-20T07:05:49.650Z,4.40
2019-06-20T07:06:49.535Z,3.90
2019-06-20T07:07:49.513Z,4.20
2019-06-20T07:08:49.512Z,4.10
2019-06-20T07:09:49.506Z,3.80
2019-06-20T07:10:49.542Z,4.30
2019-06-20T07:11:49.488Z,4.30
2019-06-20T07:12:49.464Z,4.60
2019-06-20T07:13:49.475Z,4.10
2019-06-20T07:14:49.452Z,4.10
2019-06-20T07:15:49.441Z,4.20
2019-06-20T07:16:59.785Z,4.20
2019-06-20T07:17:50.443Z,4.20
2019-06-20T07:18:49.402Z,4.30
2019-06-20T07:19:49.397Z,4.10
2019-06-20T07:20:49.389Z,4.00
2019-06-20T07:21:49.373Z,4.20
2019-06-20T07:22:49.387Z,4.00
2019-06-20T07:23:49.383Z,4.10
2019-06-20T07:24:49.331Z,4.30
2019-06-20T07:25:49.335Z,4.00
2019-06-20T07:26:49.324Z,4.00
2019-06-20T07:27:49.302Z,3.90
2019-06-20T07:28:51.492Z,4.40
2019-06-20T07:29:49.435Z,4.60
2019-06-20T07:30:49.271Z,4.40
2019-06-20T07:31:49.283Z,4.60
2019-06-20T07:32:49.248Z,4.10
2019-06-20T07:33:49.280Z,4.50
2019-06-20T07:34:49.231Z,4.30
2019-06-20T07:35:49.233Z,4.30
2019-06-20T07:36:49.219Z,4.30
2019-06-20T07:37:49.198Z,4.30
2019-06-20T07:38:49.181Z,4.20
2019-06-20T07:39:49.221Z,4.70
2019-06-20T07:40:49.160Z,4.30
2019-06-20T07:41:49.150Z,4.40
2019-06-20T07:42:49.198Z,4.30
2019-06-20T07:43:49.128Z,4.30
2019-06-20T07:44:49.111Z,4.20
2019-06-20T07:46:02.177Z,4.30
2019-06-20T07:46:50.087Z,4.30
2019-06-20T07:47:49.079Z,4.80
2019-06-20T07:48:49.068Z,4.80
2019-06-20T07:49:49.063Z,4.80
2019-06-20T07:50:49.052Z,4.30
2019-06-20T07:51:49.092Z,4.50
2019-06-20T07:53:01.374Z,4.80
2019-06-20T07:53:50.015Z,4.80
2019-06-20T07:54:48.999Z,4.90
2019-06-20T07:55:48.990Z,4.70
2019-06-20T07:56:48.989Z,4.40
2019-06-20T07:57:49.016Z,4.50
2019-06-20T07:58:48.959Z,4.70
2019-06-20T07:59:48.968Z,4.60
2019-06-20T08:00:48.938Z,5.00
2019-06-20T08:01:48.929Z,4.50
2019-06-20T08:02:48.912Z,4.60
2019-06-20T08:03:48.940Z,4.70
2019-06-20T08:04:48.888Z,4.40
2019-06-20T08:05:48.882Z,4.50
2019-06-20T08:06:48.884Z,4.60
2019-06-20T08:07:48.898Z,4.30
2019-06-20T08:08:48.858Z,4.80
2019-06-20T08:09:49.833Z,4.50
2019-06-20T08:10:48.826Z,4.90
2019-06-20T08:11:48.817Z,5.00
2019-06-20T08:12:48.873Z,4.30
2019-06-20T08:13:48.813Z,4.50
2019-06-20T08:14:48.784Z,4.70
2019-06-20T08:15:48.839Z,4.60
2019-06-20T08:16:48.757Z,4.40
2019-06-20T08:17:48.798Z,4.60
2019-06-20T08:18:48.766Z,4.70
2019-06-20T08:19:48.739Z,4.70
2019-06-20T08:20:48.715Z,4.20
2019-06-20T08:21:48.707Z,4.70
2019-06-20T08:22:48.738Z,4.60
2019-06-20T08:23:48.677Z,4.70
2019-06-20T08:24:48.671Z,4.50
2019-06-20T08:25:48.652Z,4.40
2019-06-20T08:26:48.663Z,4.60
2019-06-20T08:27:48.659Z,5.10
2019-06-20T08:28:48.714Z,4.70
2019-06-20T08:29:48.616Z,5.20
2019-06-20T08:30:48.607Z,4.80
2019-06-20T08:31:48.638Z,5.00
2019-06-20T08:32:57.413Z,4.70
2019-06-20T08:33:48.575Z,4.70
2019-06-20T08:34:48.928Z,4.90
2019-06-20T08:35:48.605Z,5.00
2019-06-20T08:36:48.537Z,5.20
2019-06-20T08:37:48.651Z,5.10
2019-06-20T08:38:48.509Z,5.00
2019-06-20T08:39:48.498Z,5.30
2019-06-20T08:40:48.548Z,5.10
2019-06-20T08:41:48.478Z,5.30
2019-06-20T08:42:48.470Z,5.30
2019-06-20T08:43:48.460Z,5.60
2019-06-20T08:44:48.448Z,5.10
2019-06-20T08:45:48.485Z,5.40
2019-06-20T08:46:48.468Z,5.50
2019-06-20T08:47:48.418Z,5.10
2019-06-20T08:48:48.417Z,4.90
2019-06-20T08:49:48.387Z,5.00
2019-06-20T08:50:48.430Z,5.00
2019-06-20T08:51:48.413Z,4.70
2019-06-20T08:52:48.360Z,5.10
2019-06-20T08:53:48.377Z,5.20
2019-06-20T08:54:48.337Z,5.00
2019-06-20T08:55:48.363Z,5.00
2019-06-20T08:56:48.364Z,4.70
2019-06-20T08:57:48.298Z,4.70
2019-06-20T08:58:48.301Z,4.80
2019-06-20T08:59:48.324Z,4.70
2019-06-20T09:00:48.267Z,5.20
2019-06-20T09:01:48.256Z,4.70
2019-06-20T09:02:48.605Z,5.30
2019-06-20T09:03:48.235Z,4.80
2019-06-20T09:04:48.226Z,4.60
2019-06-20T09:05:48.255Z,4.80
2019-06-20T09:06:50.136Z,5.10
2019-06-20T09:07:48.196Z,4.90
2019-06-20T09:08:48.243Z,4.70
2019-06-20T09:09:48.173Z,4.90
2019-06-20T09:10:48.157Z,4.70
2019-06-20T09:11:48.203Z,4.90
2019-06-20T09:12:49.000Z,4.80
2019-06-20T09:13:55.489Z,4.70
2019-06-20T09:14:48.127Z,5.00
2019-06-20T09:15:48.147Z,5.40
2019-06-20T09:16:48.125Z,5.30
2019-06-20T09:17:48.087Z,5.30
2019-06-20T09:18:48.082Z,5.50
2019-06-20T09:19:48.069Z,5.10
2019-06-20T09:20:48.047Z,5.10
2019-06-20T09:21:48.087Z,5.40
2019-06-20T09:22:48.027Z,5.00
2019-06-20T09:23:48.027Z,5.40
2019-06-20T09:24:48.011Z,5.70
2019-06-20T09:25:47.987Z,5.40
2019-06-20T09:26:47.987Z,5.60
2019-06-20T09:27:48.014Z,6.00
2019-06-20T09:28:59.887Z,5.80
2019-06-20T09:29:47.946Z,5.80
2019-06-20T09:30:48.872Z,5.70
2019-06-20T09:31:48.045Z,5.40
2019-06-20T09:32:47.915Z,6.00
2019-06-20T09:33:48.790Z,6.20
2019-06-20T09:34:47.906Z,5.90
2019-06-20T09:35:47.927Z,5.70
2019-06-20T09:36:47.903Z,5.90
2019-06-20T09:37:47.873Z,6.00
2019-06-20T09:38:48.516Z,5.80
2019-06-20T09:39:47.863Z,6.30
2019-06-20T09:40:47.833Z,5.90
2019-06-20T09:41:47.875Z,6.20
2019-06-20T09:42:54.890Z,5.90
2019-06-20T09:43:47.802Z,5.70
2019-06-20T09:44:47.830Z,5.40
2019-06-20T09:45:47.779Z,5.00
2019-06-20T09:46:47.770Z,5.30
2019-06-20T09:47:47.750Z,5.10
2019-06-20T09:48:47.741Z,5.00
2019-06-20T09:49:50.500Z,5.20
2019-06-20T09:50:49.385Z,5.40
2019-06-20T09:51:49.146Z,5.20
2019-06-20T09:52:49.765Z,5.60
2019-06-20T09:53:48.576Z,4.90
2019-06-20T09:54:49.847Z,5.10
2019-06-20T09:55:48.861Z,5.30
2019-06-20T09:56:50.299Z,4.90
2019-06-20T09:57:49.218Z,5.10
2019-06-20T09:58:48.314Z,4.80
2019-06-20T09:59:59.121Z,4.90
2019-06-20T10:00:49.276Z,5.20
2019-06-20T10:01:48.215Z,5.00
2019-06-20T10:02:48.933Z,5.20
2019-06-20T10:03:48.900Z,5.30
2019-06-20T10:04:49.195Z,5.30
2019-06-20T10:05:48.927Z,5.10
2019-06-20T10:06:48.676Z,5.10
2019-06-20T10:07:48.722Z,5.20
2019-06-20T10:08:48.289Z,5.10
2019-06-20T10:09:48.222Z,5.10
2019-06-20T10:10:49.335Z,4.70
2019-06-20T10:11:47.979Z,5.00
2019-06-20T10:12:47.988Z,5.30
2019-06-20T10:13:48.187Z,5.40
2019-06-20T10:14:48.094Z,5.00
2019-06-20T10:15:47.948Z,5.30
2019-06-20T10:16:50.430Z,5.30
2019-06-20T10:17:48.519Z,5.10
2019-06-20T10:18:48.479Z,5.50
2019-06-20T10:19:48.389Z,5.30
2019-06-20T10:20:48.792Z,5.00
2019-06-20T10:21:47.860Z,5.40
2019-06-20T10:22:48.475Z,4.50
2019-06-20T10:23:47.726Z,4.70
2019-06-20T10:24:47.471Z,5.00
2019-06-20T10:25:47.808Z,5.60
2019-06-20T10:26:47.955Z,5.10
2019-06-20T10:27:48.312Z,4.40
2019-06-20T10:28:47.651Z,4.30
2019-06-20T10:29:47.848Z,4.40
2019-06-20T10:30:47.323Z,4.40
2019-06-20T10:31:48.743Z,4.00
2019-06-20T10:32:48.580Z,4.10
2019-06-20T10:33:48.397Z,3.80
2019-06-20T10:34:48.291Z,4.20
2019-06-20T10:35:48.361Z,4.10
2019-06-20T10:36:48.148Z,4.10
2019-06-20T10:37:48.352Z,4.10
2019-06-20T10:38:48.028Z,4.10
2019-06-20T10:39:47.767Z,4.30
2019-06-20T10:40:47.968Z,4.00
2019-06-20T10:41:48.471Z,3.70
2019-06-20T10:42:48.118Z,4.00
2019-06-20T10:43:47.583Z,3.90
2019-06-20T10:44:47.670Z,3.20
2019-06-20T10:45:47.400Z,3.90
2019-06-20T10:46:47.303Z,3.90
2019-06-20T10:47:47.590Z,3.60
2019-06-20T10:48:47.972Z,3.40
2019-06-20T10:49:47.801Z,3.60
2019-06-20T10:50:47.733Z,3.60
2019-06-20T10:51:47.596Z,3.50
2019-06-20T10:52:48.016Z,3.80
2019-06-20T10:53:47.186Z,3.90
2019-06-20T10:54:47.101Z,4.00
2019-06-20T10:55:47.033Z,4.40
2019-06-20T10:56:47.235Z,4.00
2019-06-20T10:57:47.045Z,3.70
2019-06-20T10:58:46.969Z,3.80
2019-06-20T10:59:46.988Z,3.70
2019-06-20T11:00:48.280Z,4.00
2019-06-20T11:01:48.269Z,4.00
2019-06-20T11:02:47.080Z,3.90
2019-06-20T11:03:47.801Z,3.90
2019-06-20T11:04:47.751Z,4.00
2019-06-20T11:05:48.114Z,3.80
2019-06-20T11:06:47.601Z,3.90
2019-06-20T11:07:47.616Z,3.70
2019-06-20T11:08:47.255Z,4.00
2019-06-20T11:09:47.143Z,3.50
2019-06-20T11:10:47.216Z,3.70
2019-06-20T11:11:47.082Z,3.60
2019-06-20T11:12:52.979Z,3.50
2019-06-20T11:13:48.584Z,3.50
2019-06-20T11:14:46.784Z,3.50
2019-06-20T11:15:46.777Z,3.60
2019-06-20T11:16:47.171Z,3.50
2019-06-20T11:17:47.128Z,3.10
2019-06-20T11:18:46.742Z,3.40
2019-06-20T11:19:48.047Z,2.90
2019-06-20T11:20:46.731Z,3.20
2019-06-20T11:21:47.725Z,3.20
2019-06-20T11:22:47.782Z,3.40
2019-06-20T11:23:47.441Z,3.20
2019-06-20T11:24:47.446Z,3.50
2019-06-20T11:25:46.736Z,3.60
2019-06-20T11:26:47.862Z,3.40
2019-06-20T11:27:47.293Z,3.40
2019-06-20T11:28:46.631Z,3.40
2019-06-20T11:29:46.634Z,3.70
2019-06-20T11:30:58.159Z,4.00
2019-06-20T11:31:48.264Z,3.40
2019-06-20T11:32:48.603Z,3.90
2019-06-20T11:33:46.579Z,3.80
2019-06-20T11:34:47.540Z,3.50
2019-06-20T11:35:47.892Z,3.40
2019-06-20T11:36:46.815Z,3.30
2019-06-20T11:37:47.237Z,3.40
2019-06-20T11:38:46.909Z,3.00
2019-06-20T11:39:47.456Z,3.20
2019-06-20T11:40:46.534Z,3.60
2019-06-20T11:41:46.503Z,3.50
2019-06-20T11:42:46.923Z,3.30
2019-06-20T11:43:46.882Z,3.60
2019-06-20T11:44:47.483Z,3.50
2019-06-20T11:45:47.216Z,3.40
2019-06-20T11:46:47.137Z,3.00
2019-06-20T11:47:47.393Z,3.10
2019-06-20T11:48:47.100Z,3.00
2019-06-20T11:49:46.994Z,2.90
2019-06-20T11:50:46.625Z,2.80
2019-06-20T11:51:46.401Z,2.80
2019-06-20T11:52:46.374Z,3.10
2019-06-20T11:53:46.409Z,2.90
2019-06-20T11:54:46.372Z,2.80
2019-06-20T11:55:46.345Z,2.60
2019-06-20T11:56:46.323Z,3.00
2019-06-20T11:57:46.311Z,2.80
2019-06-20T11:58:46.301Z,2.90
2019-06-20T11:59:46.341Z,3.70
2019-06-20T12:01:02.454Z,3.30
2019-06-20T12:01:47.360Z,3.40
2019-06-20T12:02:46.326Z,3.40
2019-06-20T12:03:46.711Z,3.40
2019-06-20T12:04:47.105Z,3.00
2019-06-20T12:05:47.284Z,3.10
2019-06-20T12:06:47.169Z,3.00
2019-06-20T12:07:47.875Z,3.20
2019-06-20T12:08:46.808Z,2.70
2019-06-20T12:09:46.567Z,3.00
2019-06-20T12:10:47.322Z,2.60
2019-06-20T12:11:46.798Z,2.50
2019-06-20T12:12:46.918Z,2.40
2019-06-20T12:13:46.501Z,2.20
2019-06-20T12:14:46.784Z,2.30
2019-06-20T12:15:46.675Z,2.10
2019-06-20T12:16:46.439Z,1.90
2019-06-20T12:17:47.152Z,1.80
2019-06-20T12:18:47.235Z,2.10
2019-06-20T12:19:46.710Z,2.10
2019-06-20T12:20:46.816Z,1.80
2019-06-20T12:21:46.920Z,1.90
2019-06-20T12:22:46.647Z,2.10
2019-06-20T12:23:46.850Z,1.70
2019-06-20T12:24:46.698Z,1.90
2019-06-20T12:25:46.575Z,2.00
2019-06-20T12:26:46.820Z,2.00
2019-06-20T12:27:47.513Z,2.00
2019-06-20T12:28:46.650Z,2.00
2019-06-20T12:29:46.524Z,2.00
2019-06-20T12:30:45.947Z,2.10
2019-06-20T12:31:45.963Z,2.10
2019-06-20T12:32:46.860Z,1.70
2019-06-20T12:33:47.173Z,1.90
2019-06-20T12:34:46.609Z,1.90
2019-06-20T12:35:46.716Z,2.20
2019-06-20T12:36:46.632Z,1.80
2019-06-20T12:37:46.010Z,1.80
2019-06-20T12:38:46.255Z,2.10
2019-06-20T12:39:46.368Z,1.90
2019-06-20T12:40:46.223Z,2.00
2019-06-20T12:41:45.862Z,1.90
2019-06-20T12:42:46.830Z,2.00
2019-06-20T12:43:46.311Z,1.90
2019-06-20T12:44:46.072Z,2.00
2019-06-20T12:45:47.136Z,2.10
2019-06-20T12:46:46.984Z,2.00
2019-06-20T12:47:46.250Z,1.90
2019-06-20T12:48:46.959Z,1.70
2019-06-20T12:49:45.925Z,1.90
2019-06-20T12:50:45.736Z,2.20
2019-06-20T12:51:46.707Z,1.80
2019-06-20T12:52:47.163Z,2.00
2019-06-20T12:53:46.549Z,1.70
2019-06-20T12:54:46.829Z,1.70
2019-06-20T12:55:45.836Z,2.10
2019-06-20T12:56:46.257Z,1.90
2019-06-20T12:57:46.346Z,1.70
2019-06-20T12:58:46.706Z,1.70
2019-06-20T12:59:46.339Z,1.70
2019-06-20T13:00:46.604Z,1.70
2019-06-20T13:01:47.737Z,1.80
2019-06-20T13:02:45.713Z,1.90
2019-06-20T13:03:46.387Z,2.00
2019-06-20T13:04:46.019Z,1.90
2019-06-20T13:05:46.971Z,1.90
2019-06-20T13:06:46.875Z,2.00
2019-06-20T13:07:46.468Z,1.80
2019-06-20T13:08:45.558Z,1.70
2019-06-20T13:09:46.322Z,1.90
2019-06-20T13:10:46.200Z,1.90
2019-06-20T13:11:45.495Z,1.80
2019-06-20T13:12:46.395Z,2.40
2019-06-20T13:13:46.578Z,2.20
2019-06-20T13:14:45.726Z,2.10
2019-06-20T13:15:46.821Z,3.10
2019-06-20T13:16:46.095Z,2.10
2019-06-20T13:17:46.801Z,3.00
2019-06-20T13:18:46.276Z,2.30